sensor_id;sensor_type;location;lat;lon;timestamp;pressure;altitude;pressure_sealevel;temperature;humidity
43814;BME280;29669;55.706;37.656;2023-04-08T00:00:51;101102.81;;;5.08;nan
43814;BME280;29669;55.706;37.656;2023-04-08T00:03:19;101098.66;;;5.06;nan
43814;BME280;29669;55.706;37.656;2023-04-08T00:05:48;101100.44;;;5.05;nan
43814;BME280;29669;55.706;37.656;2023-04-08T00:08:22;101099.97;;;4.99;nan
43814;BME280;29669;55.706;37.656;2023-04-08T00:10:52;101104.75;;;4.91;nan
43814;BME280;29669;55.706;37.656;2023-04-08T00:13:20;101100.81;;;4.85;nan
43814;BME280;29669;55.706;37.656;2023-04-08T00:15:49;101107.81;;;4.83;nan
43814;BME280;29669;55.706;37.656;2023-04-08T00:18:16;101102.66;;;4.83;nan
43814;BME280;29669;55.706;37.656;2023-04-08T00:20:44;101103.59;;;4.82;nan
43814;BME280;29669;55.706;37.656;2023-04-08T00:23:15;101106.16;;;4.82;nan
43814;BME280;29669;55.706;37.656;2023-04-08T00:25:43;101101.13;;;4.81;nan
43814;BME280;29669;55.706;37.656;2023-04-08T00:28:11;101100.56;;;4.75;nan
43814;BME280;29669;55.706;37.656;2023-04-08T00:30:40;101099.91;;;4.72;nan
43814;BME280;29669;55.706;37.656;2023-04-08T00:33:07;101101.38;;;4.76;nan
43814;BME280;29669;55.706;37.656;2023-04-08T00:35:35;101100.66;;;4.74;nan
43814;BME280;29669;55.706;37.656;2023-04-08T00:38:03;101105.16;;;4.70;nan
43814;BME280;29669;55.706;37.656;2023-04-08T00:40:34;101099.38;;;4.67;nan
43814;BME280;29669;55.706;37.656;2023-04-08T00:43:02;101095.34;;;4.63;nan
43814;BME280;29669;55.706;37.656;2023-04-08T00:45:29;101098.00;;;4.61;nan
43814;BME280;29669;55.706;37.656;2023-04-08T00:47:57;101095.50;;;4.60;nan
43814;BME280;29669;55.706;37.656;2023-04-08T00:50:25;101093.13;;;4.57;nan
43814;BME280;29669;55.706;37.656;2023-04-08T00:52:53;101094.13;;;4.54;nan
43814;BME280;29669;55.706;37.656;2023-04-08T00:55:20;101110.50;;;4.53;nan
43814;BME280;29669;55.706;37.656;2023-04-08T00:57:48;101102.88;;;4.52;nan
43814;BME280;29669;55.706;37.656;2023-04-08T01:00:16;101108.91;;;4.51;nan
43814;BME280;29669;55.706;37.656;2023-04-08T01:02:44;101105.81;;;4.46;nan
43814;BME280;29669;55.706;37.656;2023-04-08T01:05:31;101106.06;;;4.41;nan
43814;BME280;29669;55.706;37.656;2023-04-08T01:08:01;101097.72;;;4.38;nan
43814;BME280;29669;55.706;37.656;2023-04-08T01:10:33;101109.19;;;4.32;nan
43814;BME280;29669;55.706;37.656;2023-04-08T01:13:06;101102.47;;;4.30;nan
43814;BME280;29669;55.706;37.656;2023-04-08T01:15:35;101098.47;;;4.26;nan
43814;BME280;29669;55.706;37.656;2023-04-08T01:18:08;101105.44;;;4.24;nan
43814;BME280;29669;55.706;37.656;2023-04-08T01:20:37;101097.78;;;4.22;nan
43814;BME280;29669;55.706;37.656;2023-04-08T01:25:48;101110.94;;;4.18;nan
43814;BME280;29669;55.706;37.656;2023-04-08T01:28:17;101110.19;;;4.16;nan
43814;BME280;29669;55.706;37.656;2023-04-08T01:30:45;101100.91;;;4.13;nan
43814;BME280;29669;55.706;37.656;2023-04-08T01:33:14;101105.41;;;4.10;nan
43814;BME280;29669;55.706;37.656;2023-04-08T01:35:43;101106.59;;;4.04;nan
43814;BME280;29669;55.706;37.656;2023-04-08T01:38:13;101103.28;;;4.02;nan
43814;BME280;29669;55.706;37.656;2023-04-08T01:40:41;101107.69;;;4.00;nan
43814;BME280;29669;55.706;37.656;2023-04-08T01:43:10;101102.63;;;3.99;nan
43814;BME280;29669;55.706;37.656;2023-04-08T01:45:39;101104.38;;;3.98;nan
43814;BME280;29669;55.706;37.656;2023-04-08T01:48:07;101098.50;;;3.96;nan
43814;BME280;29669;55.706;37.656;2023-04-08T01:50:36;101105.34;;;3.96;nan
43814;BME280;29669;55.706;37.656;2023-04-08T01:53:04;101097.84;;;3.93;nan
43814;BME280;29669;55.706;37.656;2023-04-08T01:55:33;101109.09;;;3.90;nan
43814;BME280;29669;55.706;37.656;2023-04-08T01:58:01;101110.13;;;3.88;nan
43814;BME280;29669;55.706;37.656;2023-04-08T02:00:29;101105.25;;;3.83;nan
43814;BME280;29669;55.706;37.656;2023-04-08T02:02:58;101104.59;;;3.79;nan
43814;BME280;29669;55.706;37.656;2023-04-08T02:05:26;101109.91;;;3.76;nan
43814;BME280;29669;55.706;37.656;2023-04-08T02:07:54;101111.91;;;3.71;nan
43814;BME280;29669;55.706;37.656;2023-04-08T02:10:22;101106.94;;;3.68;nan
43814;BME280;29669;55.706;37.656;2023-04-08T02:12:49;101103.66;;;3.66;nan
43814;BME280;29669;55.706;37.656;2023-04-08T02:15:17;101106.38;;;3.63;nan
43814;BME280;29669;55.706;37.656;2023-04-08T02:17:49;101111.59;;;3.62;nan
43814;BME280;29669;55.706;37.656;2023-04-08T02:20:33;101107.47;;;3.59;nan
43814;BME280;29669;55.706;37.656;2023-04-08T02:23:08;101112.66;;;3.58;nan
43814;BME280;29669;55.706;37.656;2023-04-08T02:25:37;101109.34;;;3.56;nan
43814;BME280;29669;55.706;37.656;2023-04-08T02:28:08;101116.41;;;3.52;nan
43814;BME280;29669;55.706;37.656;2023-04-08T02:30:42;101116.50;;;3.51;nan
43814;BME280;29669;55.706;37.656;2023-04-08T02:33:13;101110.72;;;3.47;nan
43814;BME280;29669;55.706;37.656;2023-04-08T02:35:41;101118.66;;;3.43;nan
43814;BME280;29669;55.706;37.656;2023-04-08T02:38:10;101119.72;;;3.39;nan
43814;BME280;29669;55.706;37.656;2023-04-08T02:40:37;101112.88;;;3.39;nan
43814;BME280;29669;55.706;37.656;2023-04-08T02:43:05;101123.97;;;3.40;nan
43814;BME280;29669;55.706;37.656;2023-04-08T02:45:37;101119.81;;;3.37;nan
43814;BME280;29669;55.706;37.656;2023-04-08T02:48:08;101120.75;;;3.36;nan
43814;BME280;29669;55.706;37.656;2023-04-08T02:50:35;101124.06;;;3.38;nan
43814;BME280;29669;55.706;37.656;2023-04-08T02:53:03;101120.75;;;3.36;nan
43814;BME280;29669;55.706;37.656;2023-04-08T02:55:35;101121.66;;;3.35;nan
43814;BME280;29669;55.706;37.656;2023-04-08T02:58:03;101126.63;;;3.38;nan
43814;BME280;29669;55.706;37.656;2023-04-08T03:00:30;101126.44;;;3.41;nan
43814;BME280;29669;55.706;37.656;2023-04-08T03:02:58;101124.63;;;3.43;nan
43814;BME280;29669;55.706;37.656;2023-04-08T03:05:26;101128.69;;;3.47;nan
43814;BME280;29669;55.706;37.656;2023-04-08T03:07:54;101121.72;;;3.49;nan
43814;BME280;29669;55.706;37.656;2023-04-08T03:10:22;101129.91;;;3.56;nan
43814;BME280;29669;55.706;37.656;2023-04-08T03:12:50;101127.09;;;3.60;nan
43814;BME280;29669;55.706;37.656;2023-04-08T03:15:18;101136.09;;;3.67;nan
43814;BME280;29669;55.706;37.656;2023-04-08T03:17:45;101128.06;;;3.73;nan
43814;BME280;29669;55.706;37.656;2023-04-08T03:20:13;101135.66;;;3.75;nan
43814;BME280;29669;55.706;37.656;2023-04-08T03:22:41;101133.75;;;3.78;nan
43814;BME280;29669;55.706;37.656;2023-04-08T03:25:08;101137.72;;;3.84;nan
43814;BME280;29669;55.706;37.656;2023-04-08T03:27:36;101140.41;;;3.97;nan
43814;BME280;29669;55.706;37.656;2023-04-08T03:30:04;101138.41;;;4.02;nan
43814;BME280;29669;55.706;37.656;2023-04-08T03:32:32;101130.59;;;4.03;nan
43814;BME280;29669;55.706;37.656;2023-04-08T03:35:00;101131.44;;;4.04;nan
43814;BME280;29669;55.706;37.656;2023-04-08T03:37:28;101132.19;;;4.06;nan
43814;BME280;29669;55.706;37.656;2023-04-08T03:39:56;101135.31;;;4.11;nan
43814;BME280;29669;55.706;37.656;2023-04-08T03:42:24;101141.13;;;4.14;nan
43814;BME280;29669;55.706;37.656;2023-04-08T03:44:51;101134.88;;;4.18;nan
43814;BME280;29669;55.706;37.656;2023-04-08T03:47:19;101141.47;;;4.22;nan
43814;BME280;29669;55.706;37.656;2023-04-08T03:49:47;101139.59;;;4.26;nan
43814;BME280;29669;55.706;37.656;2023-04-08T03:52:14;101132.41;;;4.31;nan
43814;BME280;29669;55.706;37.656;2023-04-08T03:54:42;101140.59;;;4.37;nan
43814;BME280;29669;55.706;37.656;2023-04-08T03:57:09;101147.03;;;4.44;nan
43814;BME280;29669;55.706;37.656;2023-04-08T03:59:38;101144.13;;;4.50;nan
43814;BME280;29669;55.706;37.656;2023-04-08T04:02:07;101147.22;;;4.55;nan
43814;BME280;29669;55.706;37.656;2023-04-08T04:04:37;101145.94;;;4.62;nan
43814;BME280;29669;55.706;37.656;2023-04-08T04:07:14;101146.22;;;4.72;nan
43814;BME280;29669;55.706;37.656;2023-04-08T04:09:41;101149.16;;;4.80;nan
43814;BME280;29669;55.706;37.656;2023-04-08T04:12:09;101151.38;;;4.86;nan
43814;BME280;29669;55.706;37.656;2023-04-08T04:14:37;101145.91;;;4.91;nan
43814;BME280;29669;55.706;37.656;2023-04-08T04:17:04;101142.88;;;4.98;nan
43814;BME280;29669;55.706;37.656;2023-04-08T04:19:33;101141.66;;;5.04;nan
43814;BME280;29669;55.706;37.656;2023-04-08T04:22:01;101140.47;;;5.09;nan
43814;BME280;29669;55.706;37.656;2023-04-08T04:24:29;101142.66;;;5.15;nan
43814;BME280;29669;55.706;37.656;2023-04-08T04:26:57;101145.72;;;5.22;nan
43814;BME280;29669;55.706;37.656;2023-04-08T04:29:25;101149.53;;;5.29;nan
43814;BME280;29669;55.706;37.656;2023-04-08T04:31:53;101147.41;;;5.35;nan
43814;BME280;29669;55.706;37.656;2023-04-08T04:34:21;101142.69;;;5.42;nan
43814;BME280;29669;55.706;37.656;2023-04-08T04:36:48;101140.56;;;5.48;nan
43814;BME280;29669;55.706;37.656;2023-04-08T04:39:18;101145.34;;;5.54;nan
43814;BME280;29669;55.706;37.656;2023-04-08T04:41:46;101144.84;;;5.62;nan
43814;BME280;29669;55.706;37.656;2023-04-08T04:44:15;101156.31;;;5.70;nan
43814;BME280;29669;55.706;37.656;2023-04-08T04:46:43;101154.91;;;5.79;nan
43814;BME280;29669;55.706;37.656;2023-04-08T04:49:11;101162.06;;;5.88;nan
43814;BME280;29669;55.706;37.656;2023-04-08T04:51:38;101147.97;;;5.94;nan
43814;BME280;29669;55.706;37.656;2023-04-08T04:54:06;101154.34;;;6.01;nan
43814;BME280;29669;55.706;37.656;2023-04-08T04:56:34;101154.69;;;6.09;nan
43814;BME280;29669;55.706;37.656;2023-04-08T04:59:01;101155.94;;;6.16;nan
43814;BME280;29669;55.706;37.656;2023-04-08T05:01:29;101152.00;;;6.23;nan
43814;BME280;29669;55.706;37.656;2023-04-08T05:03:57;101150.69;;;6.30;nan
43814;BME280;29669;55.706;37.656;2023-04-08T05:06:24;101156.25;;;6.36;nan
43814;BME280;29669;55.706;37.656;2023-04-08T05:08:53;101153.38;;;6.41;nan
43814;BME280;29669;55.706;37.656;2023-04-08T05:11:20;101150.41;;;6.47;nan
43814;BME280;29669;55.706;37.656;2023-04-08T05:13:48;101157.69;;;6.53;nan
43814;BME280;29669;55.706;37.656;2023-04-08T05:16:16;101160.59;;;6.61;nan
43814;BME280;29669;55.706;37.656;2023-04-08T05:18:44;101162.03;;;6.65;nan
43814;BME280;29669;55.706;37.656;2023-04-08T05:21:12;101159.34;;;6.66;nan
43814;BME280;29669;55.706;37.656;2023-04-08T05:23:40;101166.97;;;6.68;nan
43814;BME280;29669;55.706;37.656;2023-04-08T05:26:08;101172.88;;;6.70;nan
43814;BME280;29669;55.706;37.656;2023-04-08T05:28:38;101170.59;;;6.78;nan
43814;BME280;29669;55.706;37.656;2023-04-08T05:31:06;101162.44;;;6.84;nan
43814;BME280;29669;55.706;37.656;2023-04-08T05:33:33;101174.72;;;6.93;nan
43814;BME280;29669;55.706;37.656;2023-04-08T05:36:01;101173.28;;;7.02;nan
43814;BME280;29669;55.706;37.656;2023-04-08T05:38:29;101176.34;;;7.07;nan
43814;BME280;29669;55.706;37.656;2023-04-08T05:41:02;101164.66;;;7.14;nan
43814;BME280;29669;55.706;37.656;2023-04-08T05:43:34;101174.38;;;7.23;nan
43814;BME280;29669;55.706;37.656;2023-04-08T05:46:06;101176.50;;;7.29;nan
43814;BME280;29669;55.706;37.656;2023-04-08T05:48:34;101181.22;;;7.35;nan
43814;BME280;29669;55.706;37.656;2023-04-08T05:51:03;101170.47;;;7.41;nan
43814;BME280;29669;55.706;37.656;2023-04-08T05:53:31;101176.03;;;7.47;nan
43814;BME280;29669;55.706;37.656;2023-04-08T05:55:59;101180.97;;;7.50;nan
43814;BME280;29669;55.706;37.656;2023-04-08T05:58:26;101179.72;;;7.56;nan
43814;BME280;29669;55.706;37.656;2023-04-08T06:00:54;101169.78;;;7.63;nan
43814;BME280;29669;55.706;37.656;2023-04-08T06:03:21;101174.50;;;7.69;nan
43814;BME280;29669;55.706;37.656;2023-04-08T06:05:49;101166.19;;;7.76;nan
43814;BME280;29669;55.706;37.656;2023-04-08T06:08:17;101171.75;;;7.83;nan
43814;BME280;29669;55.706;37.656;2023-04-08T06:13:42;101168.66;;;8.01;nan
43814;BME280;29669;55.706;37.656;2023-04-08T06:16:17;101164.66;;;8.08;nan
43814;BME280;29669;55.706;37.656;2023-04-08T06:18:50;101173.53;;;8.17;nan
43814;BME280;29669;55.706;37.656;2023-04-08T06:21:18;101165.09;;;8.26;nan
43814;BME280;29669;55.706;37.656;2023-04-08T06:23:46;101167.38;;;8.30;nan
43814;BME280;29669;55.706;37.656;2023-04-08T06:26:14;101167.72;;;8.37;nan
43814;BME280;29669;55.706;37.656;2023-04-08T06:28:42;101168.41;;;8.39;nan
43814;BME280;29669;55.706;37.656;2023-04-08T06:31:10;101169.72;;;8.44;nan
43814;BME280;29669;55.706;37.656;2023-04-08T06:33:38;101174.09;;;8.55;nan
43814;BME280;29669;55.706;37.656;2023-04-08T06:36:07;101177.88;;;8.62;nan
43814;BME280;29669;55.706;37.656;2023-04-08T06:38:35;101172.94;;;8.70;nan
43814;BME280;29669;55.706;37.656;2023-04-08T06:41:06;101172.69;;;8.73;nan
43814;BME280;29669;55.706;37.656;2023-04-08T06:43:44;101170.00;;;8.75;nan
43814;BME280;29669;55.706;37.656;2023-04-08T06:46:12;101166.34;;;8.77;nan
43814;BME280;29669;55.706;37.656;2023-04-08T06:48:39;101167.53;;;8.84;nan
43814;BME280;29669;55.706;37.656;2023-04-08T06:51:08;101166.94;;;8.92;nan
43814;BME280;29669;55.706;37.656;2023-04-08T06:53:40;101168.00;;;9.00;nan
43814;BME280;29669;55.706;37.656;2023-04-08T06:56:11;101165.41;;;9.00;nan
43814;BME280;29669;55.706;37.656;2023-04-08T06:58:43;101162.13;;;8.98;nan
43814;BME280;29669;55.706;37.656;2023-04-08T07:01:11;101168.72;;;9.02;nan
43814;BME280;29669;55.706;37.656;2023-04-08T07:03:38;101171.75;;;9.07;nan
43814;BME280;29669;55.706;37.656;2023-04-08T07:06:11;101160.22;;;9.11;nan
43814;BME280;29669;55.706;37.656;2023-04-08T07:08:39;101166.22;;;9.12;nan
43814;BME280;29669;55.706;37.656;2023-04-08T07:11:06;101166.34;;;9.21;nan
43814;BME280;29669;55.706;37.656;2023-04-08T07:13:34;101164.78;;;9.30;nan
43814;BME280;29669;55.706;37.656;2023-04-08T07:16:02;101154.78;;;9.36;nan
43814;BME280;29669;55.706;37.656;2023-04-08T07:18:31;101158.38;;;9.45;nan
43814;BME280;29669;55.706;37.656;2023-04-08T07:20:59;101157.78;;;9.52;nan
43814;BME280;29669;55.706;37.656;2023-04-08T07:23:27;101162.00;;;9.65;nan
43814;BME280;29669;55.706;37.656;2023-04-08T07:25:54;101156.75;;;9.76;nan
43814;BME280;29669;55.706;37.656;2023-04-08T07:28:22;101157.34;;;9.79;nan
43814;BME280;29669;55.706;37.656;2023-04-08T07:30:50;101158.16;;;9.80;nan
43814;BME280;29669;55.706;37.656;2023-04-08T07:33:17;101154.38;;;9.84;nan
43814;BME280;29669;55.706;37.656;2023-04-08T07:35:45;101159.03;;;9.90;nan
43814;BME280;29669;55.706;37.656;2023-04-08T07:38:13;101155.03;;;9.97;nan
43814;BME280;29669;55.706;37.656;2023-04-08T07:40:42;101162.06;;;10.06;nan
43814;BME280;29669;55.706;37.656;2023-04-08T07:43:09;101157.78;;;10.16;nan
43814;BME280;29669;55.706;37.656;2023-04-08T07:45:37;101155.84;;;10.29;nan
43814;BME280;29669;55.706;37.656;2023-04-08T07:48:05;101159.06;;;10.42;nan
43814;BME280;29669;55.706;37.656;2023-04-08T07:50:35;101155.88;;;10.59;nan
43814;BME280;29669;55.706;37.656;2023-04-08T07:53:02;101154.16;;;10.79;nan
43814;BME280;29669;55.706;37.656;2023-04-08T07:55:33;101154.50;;;10.95;nan
43814;BME280;29669;55.706;37.656;2023-04-08T07:58:01;101152.22;;;11.01;nan
43814;BME280;29669;55.706;37.656;2023-04-08T08:00:28;101150.44;;;11.11;nan
43814;BME280;29669;55.706;37.656;2023-04-08T08:02:57;101147.75;;;11.22;nan
43814;BME280;29669;55.706;37.656;2023-04-08T08:05:25;101155.44;;;11.33;nan
43814;BME280;29669;55.706;37.656;2023-04-08T08:07:53;101151.50;;;11.49;nan
43814;BME280;29669;55.706;37.656;2023-04-08T08:10:21;101147.56;;;11.64;nan
43814;BME280;29669;55.706;37.656;2023-04-08T08:12:49;101149.91;;;11.76;nan
43814;BME280;29669;55.706;37.656;2023-04-08T08:15:16;101147.56;;;11.83;nan
43814;BME280;29669;55.706;37.656;2023-04-08T08:17:44;101153.06;;;11.89;nan
43814;BME280;29669;55.706;37.656;2023-04-08T08:20:13;101149.91;;;11.95;nan
43814;BME280;29669;55.706;37.656;2023-04-08T08:22:41;101140.19;;;11.97;nan
43814;BME280;29669;55.706;37.656;2023-04-08T08:25:22;101140.72;;;12.01;nan
43814;BME280;29669;55.706;37.656;2023-04-08T08:27:52;101143.47;;;12.09;nan
43814;BME280;29669;55.706;37.656;2023-04-08T08:30:19;101136.19;;;12.12;nan
43814;BME280;29669;55.706;37.656;2023-04-08T08:32:48;101138.09;;;12.20;nan
43814;BME280;29669;55.706;37.656;2023-04-08T08:35:21;101134.50;;;12.30;nan
43814;BME280;29669;55.706;37.656;2023-04-08T08:37:49;101135.31;;;12.41;nan
43814;BME280;29669;55.706;37.656;2023-04-08T08:40:17;101125.56;;;12.43;nan
43814;BME280;29669;55.706;37.656;2023-04-08T08:42:53;101127.34;;;12.42;nan
43814;BME280;29669;55.706;37.656;2023-04-08T08:45:23;101124.75;;;12.42;nan
43814;BME280;29669;55.706;37.656;2023-04-08T08:47:55;101129.13;;;12.42;nan
43814;BME280;29669;55.706;37.656;2023-04-08T08:57:02;101116.75;;;12.53;nan
43814;BME280;29669;55.706;37.656;2023-04-08T08:59:35;101118.69;;;12.51;nan
43814;BME280;29669;55.706;37.656;2023-04-08T09:02:04;101117.06;;;12.50;nan
43814;BME280;29669;55.706;37.656;2023-04-08T09:05:03;101117.72;;;12.52;nan
43814;BME280;29669;55.706;37.656;2023-04-08T09:07:35;101119.78;;;12.58;nan
43814;BME280;29669;55.706;37.656;2023-04-08T09:10:06;101112.19;;;12.65;nan
43814;BME280;29669;55.706;37.656;2023-04-08T09:13:01;101121.22;;;12.70;nan
43814;BME280;29669;55.706;37.656;2023-04-08T09:17:35;101120.41;;;12.70;nan
43814;BME280;29669;55.706;37.656;2023-04-08T09:20:11;101120.66;;;12.76;nan
43814;BME280;29669;55.706;37.656;2023-04-08T09:25:24;101114.44;;;12.87;nan
43814;BME280;29669;55.706;37.656;2023-04-08T09:27:53;101108.78;;;12.91;nan
43814;BME280;29669;55.706;37.656;2023-04-08T09:30:24;101105.44;;;12.99;nan
43814;BME280;29669;55.706;37.656;2023-04-08T09:32:53;101109.56;;;13.01;nan
43814;BME280;29669;55.706;37.656;2023-04-08T09:35:21;101109.13;;;13.06;nan
43814;BME280;29669;55.706;37.656;2023-04-08T09:38:02;101103.34;;;13.12;nan
43814;BME280;29669;55.706;37.656;2023-04-08T09:40:33;101104.25;;;13.20;nan
43814;BME280;29669;55.706;37.656;2023-04-08T09:43:04;101089.28;;;13.23;nan
43814;BME280;29669;55.706;37.656;2023-04-08T09:45:33;101095.09;;;13.16;nan
43814;BME280;29669;55.706;37.656;2023-04-08T09:50:35;101098.59;;;13.07;nan
43814;BME280;29669;55.706;37.656;2023-04-08T09:53:08;101093.06;;;13.10;nan
43814;BME280;29669;55.706;37.656;2023-04-08T09:55:40;101088.63;;;13.20;nan
43814;BME280;29669;55.706;37.656;2023-04-08T09:58:18;101082.81;;;13.27;nan
43814;BME280;29669;55.706;37.656;2023-04-08T10:00:49;101081.78;;;13.37;nan
43814;BME280;29669;55.706;37.656;2023-04-08T10:03:21;101100.63;;;13.49;nan
43814;BME280;29669;55.706;37.656;2023-04-08T10:05:55;101095.03;;;13.61;nan
43814;BME280;29669;55.706;37.656;2023-04-08T10:08:27;101093.59;;;13.67;nan
43814;BME280;29669;55.706;37.656;2023-04-08T10:10:57;101093.31;;;13.70;nan
43814;BME280;29669;55.706;37.656;2023-04-08T10:13:25;101087.78;;;13.73;nan
43814;BME280;29669;55.706;37.656;2023-04-08T10:18:42;101072.56;;;13.86;nan
43814;BME280;29669;55.706;37.656;2023-04-08T10:24:19;101076.72;;;13.96;nan
43814;BME280;29669;55.706;37.656;2023-04-08T10:31:43;101065.88;;;14.09;nan
43814;BME280;29669;55.706;37.656;2023-04-08T10:38:03;101065.53;;;14.30;nan
43814;BME280;29669;55.706;37.656;2023-04-08T10:40:34;101061.81;;;14.40;nan
43814;BME280;29669;55.706;37.656;2023-04-08T10:43:05;101067.41;;;14.45;nan
43814;BME280;29669;55.706;37.656;2023-04-08T10:45:32;101063.34;;;14.51;nan
43814;BME280;29669;55.706;37.656;2023-04-08T10:51:01;101061.66;;;14.75;nan
43814;BME280;29669;55.706;37.656;2023-04-08T10:54:07;101059.06;;;14.91;nan
43814;BME280;29669;55.706;37.656;2023-04-08T10:57:09;101050.09;;;14.94;nan
43814;BME280;29669;55.706;37.656;2023-04-08T10:59:36;101049.31;;;15.01;nan
43814;BME280;29669;55.706;37.656;2023-04-08T11:05:03;101043.16;;;15.35;nan
43814;BME280;29669;55.706;37.656;2023-04-08T11:08:11;101037.06;;;15.18;nan
43814;BME280;29669;55.706;37.656;2023-04-08T11:11:06;101033.78;;;15.16;nan
43814;BME280;29669;55.706;37.656;2023-04-08T11:13:39;101029.31;;;15.42;nan
43814;BME280;29669;55.706;37.656;2023-04-08T11:16:17;101036.13;;;15.67;nan
43814;BME280;29669;55.706;37.656;2023-04-08T11:18:45;101036.31;;;15.82;nan
43814;BME280;29669;55.706;37.656;2023-04-08T11:21:14;101026.44;;;16.00;nan
43814;BME280;29669;55.706;37.656;2023-04-08T11:23:47;101025.97;;;16.05;nan
43814;BME280;29669;55.706;37.656;2023-04-08T11:26:51;101027.44;;;15.99;nan
43814;BME280;29669;55.706;37.656;2023-04-08T11:29:21;101024.47;;;16.02;nan
43814;BME280;29669;55.706;37.656;2023-04-08T11:31:51;101024.66;;;15.92;nan
43814;BME280;29669;55.706;37.656;2023-04-08T11:34:22;101017.63;;;15.93;nan
43814;BME280;29669;55.706;37.656;2023-04-08T11:36:50;101022.22;;;15.91;nan
43814;BME280;29669;55.706;37.656;2023-04-08T11:39:23;101018.78;;;15.90;nan
43814;BME280;29669;55.706;37.656;2023-04-08T11:41:51;101014.84;;;15.94;nan
43814;BME280;29669;55.706;37.656;2023-04-08T11:44:19;101018.22;;;16.11;nan
43814;BME280;29669;55.706;37.656;2023-04-08T11:46:55;101007.25;;;16.16;nan
43814;BME280;29669;55.706;37.656;2023-04-08T11:49:46;101012.34;;;16.01;nan
43814;BME280;29669;55.706;37.656;2023-04-08T11:52:16;100999.59;;;16.06;nan
43814;BME280;29669;55.706;37.656;2023-04-08T11:54:44;100998.00;;;16.36;nan
43814;BME280;29669;55.706;37.656;2023-04-08T11:57:16;100992.09;;;16.42;nan
43814;BME280;29669;55.706;37.656;2023-04-08T11:59:56;100996.72;;;16.32;nan
43814;BME280;29669;55.706;37.656;2023-04-08T12:02:24;100997.19;;;16.35;nan
43814;BME280;29669;55.706;37.656;2023-04-08T12:04:52;100994.25;;;16.38;nan
43814;BME280;29669;55.706;37.656;2023-04-08T12:07:19;100993.91;;;16.33;nan
43814;BME280;29669;55.706;37.656;2023-04-08T12:09:47;100997.19;;;16.35;nan
43814;BME280;29669;55.706;37.656;2023-04-08T12:12:15;100994.13;;;16.24;nan
43814;BME280;29669;55.706;37.656;2023-04-08T12:14:43;100996.25;;;16.20;nan
43814;BME280;29669;55.706;37.656;2023-04-08T12:17:10;100995.75;;;16.33;nan
43814;BME280;29669;55.706;37.656;2023-04-08T12:19:38;100997.16;;;16.51;nan
43814;BME280;29669;55.706;37.656;2023-04-08T12:22:06;100978.78;;;16.59;nan
43814;BME280;29669;55.706;37.656;2023-04-08T12:24:34;100988.91;;;16.62;nan
43814;BME280;29669;55.706;37.656;2023-04-08T12:27:01;100980.41;;;16.60;nan
43814;BME280;29669;55.706;37.656;2023-04-08T12:29:31;100979.06;;;16.64;nan
43814;BME280;29669;55.706;37.656;2023-04-08T12:31:58;100980.13;;;16.78;nan
43814;BME280;29669;55.706;37.656;2023-04-08T12:34:28;100981.47;;;16.97;nan
43814;BME280;29669;55.706;37.656;2023-04-08T12:36:56;100975.50;;;17.11;nan
43814;BME280;29669;55.706;37.656;2023-04-08T12:39:24;100977.16;;;17.26;nan
43814;BME280;29669;55.706;37.656;2023-04-08T12:41:51;100974.94;;;17.38;nan
43814;BME280;29669;55.706;37.656;2023-04-08T12:44:19;100967.22;;;17.59;nan
43814;BME280;29669;55.706;37.656;2023-04-08T12:46:47;100964.44;;;18.04;nan
43814;BME280;29669;55.706;37.656;2023-04-08T12:51:41;100963.44;;;19.54;nan
43814;BME280;29669;55.706;37.656;2023-04-08T12:54:08;100953.72;;;20.23;nan
43814;BME280;29669;55.706;37.656;2023-04-08T12:56:36;100953.44;;;20.12;nan
43814;BME280;29669;55.706;37.656;2023-04-08T12:59:05;100948.41;;;20.17;nan
43814;BME280;29669;55.706;37.656;2023-04-08T13:01:32;100958.31;;;20.69;nan
43814;BME280;29669;55.706;37.656;2023-04-08T13:04:00;100951.53;;;21.33;nan
43814;BME280;29669;55.706;37.656;2023-04-08T13:06:27;100948.03;;;21.72;nan
43814;BME280;29669;55.706;37.656;2023-04-08T13:08:55;100944.19;;;21.87;nan
43814;BME280;29669;55.706;37.656;2023-04-08T13:11:23;100935.44;;;21.87;nan
43814;BME280;29669;55.706;37.656;2023-04-08T13:13:50;100936.28;;;21.61;nan
43814;BME280;29669;55.706;37.656;2023-04-08T13:18:46;100937.94;;;21.36;nan
43814;BME280;29669;55.706;37.656;2023-04-08T13:21:13;100939.13;;;21.53;nan
43814;BME280;29669;55.706;37.656;2023-04-08T13:23:41;100936.06;;;21.56;nan
43814;BME280;29669;55.706;37.656;2023-04-08T13:26:09;100937.31;;;21.47;nan
43814;BME280;29669;55.706;37.656;2023-04-08T13:28:36;100926.91;;;21.52;nan
43814;BME280;29669;55.706;37.656;2023-04-08T13:31:20;100930.31;;;21.79;nan
43814;BME280;29669;55.706;37.656;2023-04-08T13:33:47;100930.69;;;22.02;nan
43814;BME280;29669;55.706;37.656;2023-04-08T13:36:17;100927.16;;;22.21;nan
43814;BME280;29669;55.706;37.656;2023-04-08T13:38:45;100920.13;;;22.08;nan
43814;BME280;29669;55.706;37.656;2023-04-08T13:41:12;100918.09;;;21.97;nan
43814;BME280;29669;55.706;37.656;2023-04-08T13:43:40;100918.97;;;21.91;nan
43814;BME280;29669;55.706;37.656;2023-04-08T13:46:08;100923.28;;;21.53;nan
43814;BME280;29669;55.706;37.656;2023-04-08T13:48:35;100923.31;;;21.14;nan
43814;BME280;29669;55.706;37.656;2023-04-08T13:51:02;100917.78;;;20.96;nan
43814;BME280;29669;55.706;37.656;2023-04-08T13:53:32;100921.63;;;20.87;nan
43814;BME280;29669;55.706;37.656;2023-04-08T13:55:59;100914.53;;;20.87;nan
43814;BME280;29669;55.706;37.656;2023-04-08T13:58:26;100916.59;;;21.24;nan
43814;BME280;29669;55.706;37.656;2023-04-08T14:00:54;100913.69;;;21.65;nan
43814;BME280;29669;55.706;37.656;2023-04-08T14:03:22;100906.25;;;22.13;nan
43814;BME280;29669;55.706;37.656;2023-04-08T14:05:49;100900.31;;;22.62;nan